Pagina principale
METAR-TAF:

METAR-TAF

Aeroporti :

Aeroporto Internazionale di El Alto

La Paz, Bolivia

latitudine: 16-31S, longitudine: 068-11W, altezza: 4058 m

Osservazione

Il bollettino è stato emesso 1 ora e 8 minuti fa, alle 20:00 UTC
Vento 10 kt da ovest
Temperature 15°C
Umidità 20%
Pressione 1037 hPa
Visibilità 10 km o più
Poco nuvoloso ad un'altezza di 2000 ft

METAR: SLLP 242000Z 27010KT 9999 FEW020 15/M08 Q1037

Ora: 17:08 (21:08 UTC)

Previsione

Il bollettino è stato emesso 4 ore e 8 minuti fa, alle 17:00 UTC
Previsione valida dal 24 alle 18 UTC al 25 alle 18 UTC
Vento 10 kt da sud/sud-ovest
Visibilità 10 km o più
Poco nuvoloso ad un'altezza di 2000 ft
Evoluzione graduale
dal 25 alle 01 UTC al 25 alle 04 UTC
Vento 5 kt da est/nord-est

TAF: SLLP 241700Z 2418/2518 21010KT 9999 FEW020 TX17/2420Z TNM06/2510Z BECMG 2501/2504 06005KT NSC

Osservazioni e previsioni meteorologiche di più di 4000 aeroporti (messaggi METAR e TAF).

Le stazioni disponibili sono rappresentate dai dischi gialli e rossi sulla carta.

Puntare il mouse per vedere il nome della stazione.

Clicca sopra per visualizzare le osservazioni e previsioni meteorologiche.

Per cambiare la mappa : fare clic sui pulsanti verdi con una croce nera per ingrandire, il pulsante verde con un trattino per diminuire, o sulla freccia verde per le mappe adiacenti.


METAR-TAF: